Algona, Iowa
Current Conditions -  °F | °C
As of 5:15 PM on Friday 31 Oct 2014 (Local Time) from KAXA Reporting Station
Clear Clear  
Wind Chill: 34°   Ceiling: Unl
Heat Index: 39°   Visibility: 10mi
Dew Point: 18°   Wind: 7mph
Humidity: 42%   Direction: 350°N
Pressure: 30.48"   Gusts: NA
Location:  43.07°N, 94.23°W
Report Text: KAXA 312215Z AUTO 35006KT 10SM CLR 04/M08 A3048 RMK AO2
Loading
Personal Weather Stations






























Interactive Weather Map
Tropical Storm Tracking
New forecast layout! Learn more

10-Day Weather Forecast

Advertisements
Track Severe Weather on mobile